Hauptseite
METAR-TAF:

METAR-TAF

Flughäfen :

Andora, Italien

Capo Mele

Breite: 43-57N, Länge: 008-10E, Höhe: 220 m

Beobachtung

Neuester Wetterbericht von vor 1 Stunde und 0 Minuten, um 18:55 UTC
Wind 9 kt aus Nord
Temperatur 9°C
Luftfeuchtigkeit 81%
Luftdruck 1013 hPa
Sichtweite 10 km oder mehr
Leicht bewölkt in der Höhe von 2500 ft

METAR: LIMU 221855Z 36009KT 9999 FEW025 09/06 Q1013 RMK SCT QUK / QUL / VIS MAR 30 KM VIS MIN 9999

Zeit: 20:55 (19:55 UTC)


TAF: fehlend

Wetterbeobachtungen und Prognosen von mehr als 4000 Flughäfen (METAR und TAF Bericht).

Die verfügbaren Stationen werden durch gelbe und rote Markierungen auf der Karte dargestellt.

Führen Sie die Maus auf sie, um den Namen der Station zu sehen.

Darauf klicken, um die Beobachtung von Wetterbeobachtungen und Prognosen zu sehen.

Um die Karte zu ändern : klicken Sie auf den grünen Tasten mit einem schwarzen Kreuz Zum Vergrößern, auf den grünen Button mit einem Gedankenstrich zu verkleinern, oder auf die grünen Pfeile für benachbarte Karten.


METAR-TAF: